Time;durP1;ratioP1;P1;durP2;ratioP2;P2;SDS_P1;SDS_P2;PMS_P1;PMS_P2;Temp;Humidity;BMP_temperature;BMP_pressure;BME280_temperature;BME280_humidity;BME280_pressure;Samples;Min_cycle;Max_cycle;Signal;HPM_P1;HPM_P2
2023/05/24 00:02:12;;;;;;;12.70;2.47;;;10.60;99.90;;;;;;5070753;28;20170;-48
2023/05/24 00:04:39;;;;;;;9.18;2.75;;;10.50;99.90;;;;;;5070805;28;20623;-48
2023/05/24 00:07:05;;;;;;;11.48;3.25;;;;;;;;;;5070450;28;20250;-46
2023/05/24 00:09:31;;;;;;;9.27;3.20;;;10.40;99.90;;;;;;5073702;28;20219;-47
2023/05/24 00:11:57;;;;;;;14.57;3.05;;;10.30;99.90;;;;;;5074330;28;20545;-47
2023/05/24 00:14:23;;;;;;;10.63;3.47;;;10.30;99.90;;;;;;5074642;28;20571;-47
2023/05/24 00:16:48;;;;;;;7.85;2.30;;;10.50;99.90;;;;;;5074528;28;20206;-48
2023/05/24 00:19:17;;;;;;;6.78;2.70;;;10.40;99.90;;;;;;5074367;28;20218;-47
2023/05/24 00:21:46;;;;;;;7.25;2.13;;;10.50;99.90;;;;;;5074125;28;20637;-47
2023/05/24 00:24:12;;;;;;;13.00;2.75;;;10.40;99.90;;;;;;5074359;28;20177;-47
2023/05/24 00:26:38;;;;;;;6.97;2.53;;;;;;;;;;5074044;28;20162;-47
2023/05/24 00:29:04;;;;;;;7.40;2.40;;;10.30;99.90;;;;;;5074009;28;20167;-47
2023/05/24 00:31:29;;;;;;;10.50;2.55;;;10.30;99.90;;;;;;5073899;28;20174;-47
2023/05/24 00:33:55;;;;;;;14.30;2.72;;;10.20;99.90;;;;;;5074006;28;20177;-47
2023/05/24 00:36:20;;;;;;;14.82;2.78;;;10.20;99.90;;;;;;5074218;28;20204;-47
2023/05/24 00:38:46;;;;;;;11.18;2.15;;;10.10;99.90;;;;;;5073747;28;20189;-47
2023/05/24 00:41:11;;;;;;;15.27;2.83;;;10.20;99.90;;;;;;5073713;28;20541;-48
2023/05/24 00:43:37;;;;;;;9.27;2.63;;;10.20;99.90;;;;;;5073695;28;20223;-47
2023/05/24 00:46:19;;;;;;;10.48;2.33;;;10.20;99.90;;;;;;5073647;28;20184;-47
2023/05/24 00:48:45;;;;;;;13.45;2.85;;;10.20;99.90;;;;;;5073792;28;20173;-47
2023/05/24 00:51:12;;;;;;;13.80;2.60;;;10.20;99.90;;;;;;5073545;28;20522;-46
2023/05/24 00:53:38;;;;;;;8.32;2.38;;;10.30;99.90;;;;;;5073523;28;20539;-47
2023/05/24 00:56:05;;;;;;;6.57;2.30;;;10.40;99.90;;;;;;5072218;28;20232;-47
2023/05/24 00:58:31;;;;;;;7.07;2.33;;;10.40;99.90;;;;;;5073405;28;20178;-47
2023/05/24 01:01:02;;;;;;;9.38;2.58;;;10.30;99.90;;;;;;5073494;28;20627;-47
2023/05/24 01:03:28;;;;;;;9.27;3.28;;;;;;;;;;5073348;28;20201;-47
2023/05/24 01:05:58;;;;;;;11.00;2.17;;;10.40;99.90;;;;;;5073349;28;20174;-48
2023/05/24 01:08:37;;;;;;;10.20;2.85;;;10.20;99.90;;;;;;5055792;28;20265;-47
2023/05/24 01:11:22;;;;;;;7.82;2.25;;;10.20;99.90;;;;;;5073521;28;20177;-47
2023/05/24 01:14:17;;;;;;;7.03;2.38;;;10.20;99.90;;;;;;5073128;28;20166;-47
2023/05/24 01:16:52;;;;;;;10.13;2.47;;;10.20;99.90;;;;;;5067203;28;20213;-48
2023/05/24 01:19:43;;;;;;;12.25;3.05;;;10.10;99.90;;;;;;5072910;28;20162;-48
2023/05/24 01:22:33;;;;;;;6.63;2.53;;;10.20;99.90;;;;;;5073283;28;20173;-47
2023/05/24 01:25:13;;;;;;;8.63;2.90;;;10.10;99.90;;;;;;5072946;28;20162;-48
2023/05/24 01:27:39;;;;;;;11.52;2.50;;;10.10;99.90;;;;;;5072916;28;20158;-50
2023/05/24 01:30:06;;;;;;;11.35;2.90;;;10.10;99.90;;;;;;5072807;28;20235;-47
2023/05/24 01:32:32;;;;;;;11.05;3.05;;;10.20;99.90;;;;;;5073078;28;20503;-47
2023/05/24 01:34:57;;;;;;;15.60;2.90;;;10.20;99.90;;;;;;5072698;28;20161;-47
2023/05/24 01:37:23;;;;;;;11.23;2.50;;;;;;;;;;5073119;28;20205;-47
2023/05/24 01:39:50;;;;;;;13.90;2.95;;;10.20;99.90;;;;;;5073070;28;20166;-47
2023/05/24 01:42:44;;;;;;;13.93;2.60;;;10.10;99.90;;;;;;5072541;28;20163;-47
2023/05/24 01:45:21;;;;;;;8.45;2.30;;;10.10;99.90;;;;;;5066733;28;20228;-47
2023/05/24 01:48:05;;;;;;;10.82;2.63;;;10.00;99.90;;;;;;5071193;28;20630;-47
2023/05/24 01:50:35;;;;;;;12.70;2.95;;;9.90;99.90;;;;;;5072656;28;20251;-47
2023/05/24 01:53:07;;;;;;;13.15;2.80;;;9.90;99.90;;;;;;5072365;28;20166;-47
2023/05/24 01:55:36;;;;;;;8.73;2.60;;;9.80;99.90;;;;;;5072296;28;20170;-48
2023/05/24 01:58:04;;;;;;;7.43;2.70;;;9.90;99.90;;;;;;5072321;28;20162;-48
2023/05/24 02:00:30;;;;;;;13.00;2.90;;;9.90;99.90;;;;;;5072461;28;20170;-47
2023/05/24 02:02:57;;;;;;;12.35;2.75;;;9.90;99.90;;;;;;5072192;28;20587;-47
2023/05/24 02:05:22;;;;;;;5.60;2.25;;;9.90;99.90;;;;;;5072432;28;20628;-48
2023/05/24 02:07:48;;;;;;;12.70;3.17;;;;;;;;;;5072859;28;20217;-47
2023/05/24 02:10:14;;;;;;;12.45;2.80;;;9.80;99.90;;;;;;5072062;28;20170;-47
2023/05/24 02:12:40;;;;;;;12.52;2.67;;;9.60;99.90;;;;;;5072166;28;20170;-47
2023/05/24 02:15:06;;;;;;;9.35;3.20;;;9.60;99.90;;;;;;5071839;28;20662;-47
2023/05/24 02:17:31;;;;;;;6.63;2.97;;;9.60;99.90;;;;;;5071862;28;20690;-51
2023/05/24 02:19:58;;;;;;;8.63;2.55;;;9.70;99.90;;;;;;5071806;28;20173;-51
2023/05/24 02:22:25;;;;;;;15.18;3.22;;;9.80;99.90;;;;;;5070822;28;20685;-51
2023/05/24 02:24:50;;;;;;;9.82;3.13;;;9.90;99.90;;;;;;5072456;28;20538;-51
2023/05/24 02:27:16;;;;;;;10.23;3.10;;;9.80;99.90;;;;;;5071702;28;20159;-51
2023/05/24 02:29:41;;;;;;;8.25;2.90;;;9.80;99.90;;;;;;5071734;28;20166;-51
2023/05/24 02:32:07;;;;;;;11.30;3.40;;;9.80;99.90;;;;;;5071228;28;20257;-51
2023/05/24 02:34:33;;;;;;;10.15;3.65;;;9.80;99.90;;;;;;5071793;28;20231;-47
2023/05/24 02:36:58;;;;;;;13.50;3.97;;;9.50;99.90;;;;;;5071986;28;20233;-47
2023/05/24 02:39:24;;;;;;;14.73;4.00;;;9.60;99.90;;;;;;5071595;28;20215;-47
2023/05/24 02:41:50;;;;;;;9.73;3.20;;;9.60;99.90;;;;;;5072194;28;20268;-48
2023/05/24 02:44:16;;;;;;;11.13;4.03;;;9.60;99.90;;;;;;5071817;28;20169;-49
2023/05/24 02:46:41;;;;;;;14.90;4.35;;;9.40;99.90;;;;;;5071535;28;20166;-47
2023/05/24 02:49:07;;;;;;;12.30;4.40;;;9.60;99.90;;;;;;5071541;28;20585;-47
2023/05/24 02:51:32;;;;;;;13.95;3.35;;;9.50;99.90;;;;;;5071471;28;20166;-48
2023/05/24 02:53:58;;;;;;;9.52;3.95;;;9.30;99.90;;;;;;5071475;28;20253;-48
2023/05/24 02:56:25;;;;;;;14.90;3.88;;;9.30;99.90;;;;;;5071350;28;20206;-48
2023/05/24 02:58:53;;;;;;;8.20;4.00;;;9.40;99.90;;;;;;5071741;28;20219;-47
2023/05/24 03:01:18;;;;;;;8.88;3.30;;;9.40;99.90;;;;;;5071705;28;20623;-50
2023/05/24 03:03:44;;;;;;;8.98;3.72;;;;;;;;;;5071330;28;20207;-47
2023/05/24 03:06:12;;;;;;;11.20;3.38;;;9.30;99.90;;;;;;5071197;28;20205;-49
2023/05/24 03:08:39;;;;;;;11.10;3.53;;;9.40;99.90;;;;;;5071573;28;20201;-48
2023/05/24 03:11:05;;;;;;;13.18;3.33;;;9.40;99.90;;;;;;5071174;28;20178;-48
2023/05/24 03:13:30;;;;;;;8.45;3.40;;;9.40;99.90;;;;;;5071225;28;20220;-47
2023/05/24 03:15:56;;;;;;;8.60;3.25;;;9.20;99.90;;;;;;5071175;28;20203;-47
2023/05/24 03:18:21;;;;;;;12.00;3.88;;;9.10;99.90;;;;;;5071802;28;20196;-47
2023/05/24 03:20:47;;;;;;;8.63;3.47;;;9.20;99.90;;;;;;5071290;28;20162;-47
2023/05/24 03:23:13;;;;;;;14.75;3.90;;;9.10;99.90;;;;;;5071092;28;20169;-48
2023/05/24 03:25:39;;;;;;;12.85;3.58;;;9.20;99.90;;;;;;5071420;28;20182;-48
2023/05/24 03:28:05;;;;;;;10.40;3.20;;;9.20;99.90;;;;;;5071119;28;20209;-47
2023/05/24 03:30:31;;;;;;;7.60;3.67;;;9.20;99.90;;;;;;5071043;28;20528;-48
2023/05/24 03:32:57;;;;;;;13.60;3.95;;;9.30;99.90;;;;;;5071060;28;20173;-48
2023/05/24 03:35:23;;;;;;;7.28;3.28;;;;;;;;;;5071266;28;20526;-47
2023/05/24 03:37:49;;;;;;;9.55;3.20;;;9.20;99.90;;;;;;5071433;28;20206;-47
2023/05/24 03:40:15;;;;;;;7.25;3.85;;;9.20;99.90;;;;;;5071028;28;20170;-49
2023/05/24 03:42:40;;;;;;;10.95;2.85;;;9.40;99.90;;;;;;5071107;28;20166;-48
2023/05/24 03:45:06;;;;;;;14.00;3.42;;;9.30;99.90;;;;;;5075053;28;20166;-47
2023/05/24 03:47:32;;;;;;;10.32;3.33;;;9.20;99.90;;;;;;5074743;28;20245;-48
2023/05/24 03:49:57;;;;;;;9.88;3.80;;;9.20;99.90;;;;;;5074701;28;20252;-47
2023/05/24 03:52:24;;;;;;;13.52;3.60;;;9.10;99.90;;;;;;5074100;28;20194;-48
2023/05/24 03:54:50;;;;;;;11.95;3.85;;;9.10;99.90;;;;;;5075234;28;20174;-47
2023/05/24 03:57:16;;;;;;;7.75;3.22;;;9.20;99.90;;;;;;5074485;28;20212;-48
2023/05/24 03:59:42;;;;;;;8.75;4.05;;;9.20;99.90;;;;;;5074470;28;20162;-48
2023/05/24 04:02:08;;;;;;;9.85;3.35;;;9.20;99.90;;;;;;5074436;28;20174;-48
2023/05/24 04:04:33;;;;;;;12.10;3.55;;;9.20;99.90;;;;;;5074514;28;20174;-50
2023/05/24 04:06:59;;;;;;;9.57;3.67;;;9.30;99.90;;;;;;5074204;28;20266;-50
2023/05/24 04:09:25;;;;;;;10.07;3.78;;;;;;;;;;5074153;28;20550;-48
2023/05/24 04:11:51;;;;;;;8.02;3.38;;;;;;;;;;5074960;28;20174;-48
2023/05/24 04:14:17;;;;;;;13.50;3.58;;;9.30;99.90;;;;;;5074496;28;20172;-49
2023/05/24 04:16:43;;;;;;;11.20;3.58;;;9.40;99.90;;;;;;5074094;28;20655;-50
2023/05/24 04:19:09;;;;;;;18.08;4.20;;;9.40;99.90;;;;;;5074388;28;20241;-49
2023/05/24 04:21:36;;;;;;;7.30;3.00;;;9.60;99.90;;;;;;5074038;28;20166;-49
2023/05/24 04:24:03;;;;;;;7.10;3.17;;;9.70;99.90;;;;;;5074031;28;20177;-50
2023/05/24 04:26:29;;;;;;;10.52;3.65;;;9.70;99.90;;;;;;5074189;28;20177;-50
2023/05/24 04:28:56;;;;;;;13.48;3.90;;;9.60;99.90;;;;;;5074239;28;20174;-51
2023/05/24 04:31:21;;;;;;;7.88;3.80;;;9.40;99.90;;;;;;5074325;28;20668;-50
2023/05/24 04:33:48;;;;;;;11.15;3.38;;;9.70;99.90;;;;;;5074114;28;20170;-50
2023/05/24 04:36:15;;;;;;;12.98;3.72;;;9.80;99.90;;;;;;5074038;28;20287;-51
2023/05/24 04:38:40;;;;;;;11.93;3.72;;;;;;;;;;5073780;28;20696;-50
2023/05/24 04:41:06;;;;;;;9.05;3.40;;;9.90;99.90;;;;;;5073746;28;20169;-50
2023/05/24 04:43:33;;;;;;;14.55;4.93;;;10.00;99.90;;;;;;5073753;28;20163;-46
2023/05/24 04:45:59;;;;;;;12.23;3.33;;;10.20;99.90;;;;;;5073594;28;20543;-50
2023/05/24 04:48:24;;;;;;;10.10;3.05;;;10.30;99.90;;;;;;5073527;28;20411;-51
2023/05/24 04:50:51;;;;;;;11.48;3.90;;;10.50;99.90;;;;;;5074247;28;20622;-51
2023/05/24 04:53:17;;;;;;;14.52;3.75;;;10.50;99.90;;;;;;5073724;28;20247;-51
2023/05/24 04:55:43;;;;;;;14.30;3.58;;;;;;;;;;5073097;28;20158;-50
2023/05/24 04:58:09;;;;;;;12.75;3.20;;;10.70;99.90;;;;;;5073402;28;20200;-51
2023/05/24 05:00:34;;;;;;;15.00;4.15;;;10.90;99.90;;;;;;5073445;28;20615;-50
2023/05/24 05:03:00;;;;;;;7.25;3.25;;;10.90;99.90;;;;;;5073299;28;20518;-49
2023/05/24 05:05:26;;;;;;;11.23;3.42;;;11.20;99.90;;;;;;5073223;28;20170;-47
2023/05/24 05:07:51;;;;;;;9.25;2.75;;;11.30;99.90;;;;;;5073242;28;20218;-50
2023/05/24 05:10:17;;;;;;;15.98;3.58;;;;;;;;;;5073118;28;20509;-49
2023/05/24 05:12:43;;;;;;;9.57;2.95;;;11.50;99.90;;;;;;5073174;28;20166;-49
2023/05/24 05:15:09;;;;;;;10.45;3.30;;;11.40;99.90;;;;;;5073048;28;20201;-48
2023/05/24 05:17:35;;;;;;;9.75;3.28;;;11.50;99.90;;;;;;5072970;28;20256;-49
2023/05/24 05:20:01;;;;;;;14.57;4.53;;;11.70;99.90;;;;;;5073230;28;20639;-49
2023/05/24 05:22:27;;;;;;;10.20;3.40;;;11.80;99.90;;;;;;5072978;28;20170;-50
2023/05/24 05:24:53;;;;;;;18.73;3.88;;;;;;;;;;5073066;28;20175;-46
2023/05/24 05:27:18;;;;;;;14.05;4.03;;;11.60;99.90;;;;;;5073193;28;20167;-46
2023/05/24 05:29:44;;;;;;;11.60;3.88;;;11.80;99.90;;;;;;5072691;28;20218;-46
2023/05/24 05:32:09;;;;;;;10.43;3.67;;;11.90;99.90;;;;;;5072888;28;20235;-49
2023/05/24 05:34:35;;;;;;;13.00;4.47;;;11.80;99.90;;;;;;5072712;28;20536;-49
2023/05/24 05:37:00;;;;;;;17.63;5.13;;;12.00;99.90;;;;;;5072550;28;20285;-50
2023/05/24 05:39:26;;;;;;;18.95;5.55;;;12.00;99.90;;;;;;5072486;28;20651;-47
2023/05/24 05:41:52;;;;;;;18.85;4.70;;;12.10;99.90;;;;;;5073162;28;20178;-46
2023/05/24 05:44:17;;;;;;;21.48;4.95;;;12.20;99.90;;;;;;5072955;28;20224;-46
2023/05/24 05:46:44;;;;;;;16.42;4.68;;;12.30;99.90;;;;;;5072659;28;20192;-46
2023/05/24 05:49:11;;;;;;;13.63;4.32;;;12.20;99.90;;;;;;5072655;28;20611;-45
2023/05/24 05:51:37;;;;;;;22.17;5.00;;;12.30;99.90;;;;;;5072564;28;20170;-46
2023/05/24 05:54:03;;;;;;;19.30;4.43;;;12.40;99.90;;;;;;5072629;28;20174;-45
2023/05/24 05:56:29;;;;;;;16.83;5.43;;;12.40;99.90;;;;;;5072169;28;20205;-45
2023/05/24 05:58:54;;;;;;;17.90;5.15;;;12.40;99.90;;;;;;5071015;28;20256;-45
2023/05/24 06:01:20;;;;;;;15.25;5.05;;;12.40;99.90;;;;;;5070945;28;20170;-46
2023/05/24 06:03:46;;;;;;;24.02;5.57;;;12.50;99.90;;;;;;5070335;28;20197;-47
2023/05/24 06:06:11;;;;;;;18.33;5.78;;;12.40;99.90;;;;;;5069467;28;20221;-46
2023/05/24 06:08:39;;;;;;;21.92;5.70;;;12.70;99.90;;;;;;5070278;28;20166;-50
2023/05/24 06:11:05;;;;;;;20.95;5.55;;;12.70;99.90;;;;;;5070293;28;20166;-47
2023/05/24 06:13:31;;;;;;;22.52;6.65;;;;;;;;;;5070387;28;20623;-46
2023/05/24 06:16:00;;;;;;;23.95;6.55;;;12.60;99.90;;;;;;5070138;28;20662;-45
2023/05/24 06:18:26;;;;;;;20.20;5.82;;;;;;;;;;5070129;28;20181;-50
2023/05/24 06:20:52;;;;;;;25.25;6.20;;;;;;;;;;5070080;28;20162;-46
2023/05/24 06:23:18;;;;;;;15.25;5.47;;;13.00;99.90;;;;;;5070394;28;20590;-49
2023/05/24 06:25:43;;;;;;;21.85;6.03;;;13.00;99.90;;;;;;5069994;28;20170;-48
2023/05/24 06:28:09;;;;;;;20.13;6.43;;;13.20;99.90;;;;;;5069905;28;20163;-47
2023/05/24 06:30:35;;;;;;;16.15;4.78;;;;;;;;;;5069994;28;20178;-48
2023/05/24 06:33:02;;;;;;;15.85;5.38;;;;;;;;;;5069025;28;20166;-48
2023/05/24 06:35:27;;;;;;;18.90;5.40;;;13.40;99.90;;;;;;5070066;28;20199;-49
2023/05/24 06:37:53;;;;;;;22.33;5.10;;;13.30;99.90;;;;;;5069730;28;20651;-48
2023/05/24 06:40:18;;;;;;;22.65;5.43;;;13.00;99.90;;;;;;5070143;28;20642;-46
2023/05/24 06:42:44;;;;;;;20.40;6.53;;;13.00;99.90;;;;;;5069816;28;20597;-47
2023/05/24 06:45:10;;;;;;;17.02;5.00;;;13.20;99.90;;;;;;5069626;28;20211;-50
2023/05/24 06:47:35;;;;;;;14.90;4.40;;;13.80;99.90;;;;;;5068535;28;20173;-48
2023/05/24 06:50:03;;;;;;;17.20;4.90;;;13.70;99.90;;;;;;5069701;28;20607;-49
2023/05/24 06:52:28;;;;;;;23.95;7.13;;;13.80;99.90;;;;;;5069563;28;20205;-47
2023/05/24 06:54:55;;;;;;;21.55;5.75;;;14.00;99.90;;;;;;5069316;28;20658;-48
2023/05/24 06:57:20;;;;;;;17.25;5.32;;;14.20;99.90;;;;;;5068792;28;20288;-47
2023/05/24 06:59:46;;;;;;;12.98;5.38;;;;;;;;;;5069465;28;20244;-47
2023/05/24 07:02:12;;;;;;;21.25;5.10;;;14.00;99.90;;;;;;5069544;28;20276;-47
2023/05/24 07:04:39;;;;;;;26.30;6.32;;;13.90;99.90;;;;;;5068276;28;20173;-46
2023/05/24 07:07:06;;;;;;;23.88;6.40;;;;;;;;;;5069489;28;20848;-46
2023/05/24 07:09:33;;;;;;;24.27;6.30;;;;;;;;;;5069799;28;20261;-48
2023/05/24 07:11:59;;;;;;;20.70;6.15;;;;;;;;;;5069449;28;20235;-47
2023/05/24 07:14:26;;;;;;;25.20;8.57;;;14.30;99.90;;;;;;5069392;28;20162;-47
2023/05/24 07:16:53;;;;;;;14.68;6.35;;;14.40;99.90;;;;;;5069836;28;20674;-47
2023/05/24 07:19:20;;;;;;;19.52;6.53;;;14.60;99.90;;;;;;5073736;28;20261;-48
2023/05/24 07:21:46;;;;;;;17.60;5.68;;;;;;;;;;5073447;28;20180;-47
2023/05/24 07:24:12;;;;;;;19.27;7.15;;;14.70;99.90;;;;;;5073193;28;20166;-52
2023/05/24 07:26:38;;;;;;;20.58;6.45;;;;;;;;;;5073131;28;20174;-47
2023/05/24 07:29:03;;;;;;;15.77;5.40;;;14.20;99.90;;;;;;5073627;28;20192;-48
2023/05/24 07:31:31;;;;;;;13.38;4.93;;;;;;;;;;5072838;28;20265;-47
2023/05/24 07:33:57;;;;;;;23.00;5.90;;;14.80;99.90;;;;;;5072325;28;20169;-46
2023/05/24 07:36:24;;;;;;;21.65;5.80;;;;;;;;;;5073448;28;20201;-46
2023/05/24 07:38:50;;;;;;;15.77;5.28;;;14.70;99.90;;;;;;5073718;28;20515;-46
2023/05/24 07:41:16;;;;;;;16.30;5.85;;;14.60;99.90;;;;;;5073210;28;20169;-51
2023/05/24 07:43:42;;;;;;;21.58;5.65;;;;;;;;;;5073049;28;20173;-47
2023/05/24 07:46:09;;;;;;;12.65;4.20;;;;;;;;;;5072948;28;20177;-46
2023/05/24 07:48:35;;;;;;;23.77;5.72;;;14.90;99.90;;;;;;5072955;28;20623;-47
2023/05/24 07:51:00;;;;;;;16.40;4.82;;;;;;;;;;5073343;28;20185;-46
2023/05/24 07:53:26;;;;;;;20.42;4.65;;;;;;;;;;5073011;28;20219;-48
2023/05/24 07:55:52;;;;;;;18.20;4.93;;;15.20;99.90;;;;;;5072587;28;20224;-47
2023/05/24 07:58:18;;;;;;;15.60;5.45;;;15.00;99.90;;;;;;5073014;28;20189;-47
2023/05/24 08:00:44;;;;;;;17.27;4.95;;;15.20;99.90;;;;;;5072648;28;20174;-47
2023/05/24 08:03:13;;;;;;;17.75;4.68;;;15.50;99.90;;;;;;5072328;28;20189;-47
2023/05/24 08:05:39;;;;;;;15.18;4.75;;;;;;;;;;5072570;28;20180;-46
2023/05/24 08:08:06;;;;;;;12.82;4.03;;;;;;;;;;5072465;28;20176;-46
2023/05/24 08:10:32;;;;;;;12.15;3.85;;;;;;;;;;5072183;28;20210;-47
2023/05/24 08:12:58;;;;;;;13.55;3.78;;;;;;;;;;5071227;28;20190;-46
2023/05/24 08:15:23;;;;;;;10.90;3.28;;;14.70;99.90;;;;;;5072410;28;20182;-46
2023/05/24 08:17:49;;;;;;;10.20;3.22;;;14.30;99.90;;;;;;5072594;28;20209;-47
2023/05/24 08:20:15;;;;;;;11.38;3.72;;;14.20;99.90;;;;;;5072595;28;20174;-47
2023/05/24 08:22:42;;;;;;;11.50;4.47;;;15.00;99.90;;;;;;5072423;28;20174;-48
2023/05/24 08:25:08;;;;;;;14.52;4.03;;;15.40;99.90;;;;;;5072113;28;20178;-47
2023/05/24 08:27:34;;;;;;;18.02;4.00;;;;;;;;;;5072296;28;20277;-51
2023/05/24 08:30:00;;;;;;;11.20;3.70;;;;;;;;;;5070780;28;20181;-48
2023/05/24 08:32:26;;;;;;;13.65;4.13;;;;;;;;;;5071947;28;20565;-49
2023/05/24 08:34:52;;;;;;;13.15;3.90;;;15.50;99.90;;;;;;5072321;28;20791;-50
2023/05/24 08:37:19;;;;;;;17.40;3.92;;;;;;;;;;5072485;28;20213;-50
2023/05/24 08:39:45;;;;;;;18.23;5.07;;;15.00;99.90;;;;;;5071896;28;20178;-48
2023/05/24 08:42:12;;;;;;;11.15;4.10;;;;;;;;;;5071827;28;20178;-48
2023/05/24 08:44:51;;;;;;;13.57;4.50;;;15.20;99.90;;;;;;5071567;28;20247;-48
2023/05/24 08:47:19;;;;;;;14.45;4.15;;;;;;;;;;5071924;28;20257;-48
2023/05/24 08:49:46;;;;;;;16.98;3.90;;;15.20;99.90;;;;;;5071474;28;20528;-49
2023/05/24 08:52:12;;;;;;;14.15;4.55;;;;;;;;;;5071373;28;20166;-50
2023/05/24 08:54:38;;;;;;;13.98;3.90;;;;;;;;;;5069890;28;20173;-48
2023/05/24 08:57:05;;;;;;;17.42;4.13;;;;;;;;;;5071241;28;20205;-48
2023/05/24 08:59:30;;;;;;;12.55;4.20;;;15.30;99.90;;;;;;5071363;28;20192;-48
2023/05/24 09:01:56;;;;;;;11.20;3.80;;;15.20;99.90;;;;;;5071427;28;20186;-49
2023/05/24 09:04:25;;;;;;;13.80;4.97;;;15.30;99.90;;;;;;5071385;28;20197;-48
2023/05/24 09:06:53;;;;;;;15.18;4.00;;;15.30;99.90;;;;;;5071238;28;20209;-48
2023/05/24 09:09:20;;;;;;;9.85;3.70;;;15.20;99.90;;;;;;5071911;28;20166;-47
2023/05/24 09:11:50;;;;;;;12.30;4.00;;;15.30;99.90;;;;;;5071643;28;20256;-50
2023/05/24 09:14:16;;;;;;;12.07;4.38;;;15.30;99.90;;;;;;5071531;28;20166;-51
2023/05/24 09:16:43;;;;;;;20.00;4.78;;;15.50;99.90;;;;;;5070980;28;20666;-52
2023/05/24 09:19:09;;;;;;;13.38;4.20;;;15.30;99.90;;;;;;5071539;28;20256;-50
2023/05/24 09:21:35;;;;;;;14.80;4.38;;;;;;;;;;5071318;28;20258;-48
2023/05/24 09:24:00;;;;;;;16.77;4.15;;;15.60;99.90;;;;;;5071328;28;20162;-49
2023/05/24 09:26:28;;;;;;;11.10;4.35;;;15.60;99.90;;;;;;5071125;28;20557;-49
2023/05/24 09:28:56;;;;;;;11.50;4.50;;;15.70;99.90;;;;;;5070977;28;20588;-49
2023/05/24 09:31:33;;;;;;;16.23;4.18;;;15.80;99.90;;;;;;5071094;28;20260;-49
2023/05/24 09:33:58;;;;;;;12.60;4.57;;;15.90;99.90;;;;;;5070016;28;20204;-48
2023/05/24 09:36:24;;;;;;;15.75;4.60;;;;;;;;;;5070872;28;20194;-48
2023/05/24 09:39:06;;;;;;;13.93;4.30;;;17.00;99.90;;;;;;5071194;28;20170;-48
2023/05/24 09:41:32;;;;;;;22.83;4.72;;;16.70;99.90;;;;;;5070676;28;20685;-48
2023/05/24 09:43:57;;;;;;;21.73;4.63;;;16.70;99.90;;;;;;5070661;28;20256;-50
2023/05/24 09:46:24;;;;;;;9.63;3.90;;;;;;;;;;5070897;28;20166;-48
2023/05/24 09:48:57;;;;;;;12.82;4.68;;;16.70;99.90;;;;;;5070864;28;20799;-48
2023/05/24 09:51:23;;;;;;;13.55;4.07;;;;;;;;;;5070662;28;20254;-48
2023/05/24 09:53:51;;;;;;;11.75;3.92;;;16.50;99.90;;;;;;5070965;28;20166;-50
2023/05/24 09:56:17;;;;;;;16.88;5.55;;;16.60;99.90;;;;;;5070999;28;20201;-51
2023/05/24 09:58:44;;;;;;;19.00;4.70;;;16.60;99.90;;;;;;5070232;28;20701;-49
2023/05/24 10:01:12;;;;;;;14.10;4.00;;;;;;;;;;5070322;28;20643;-51
2023/05/24 10:03:38;;;;;;;12.25;4.35;;;16.40;99.90;;;;;;5070343;28;20169;-49
2023/05/24 10:06:06;;;;;;;12.68;4.50;;;16.30;99.90;;;;;;5070166;28;20237;-49
2023/05/24 10:08:35;;;;;;;19.42;5.47;;;16.30;99.90;;;;;;5070404;28;20199;-49
2023/05/24 10:11:04;;;;;;;16.40;4.55;;;16.40;99.90;;;;;;5070252;28;20165;-48
2023/05/24 10:13:34;;;;;;;14.57;4.40;;;16.20;99.90;;;;;;5070390;28;20162;-50
2023/05/24 10:16:00;;;;;;;14.00;4.55;;;;;;;;;;5070281;28;20185;-49
2023/05/24 10:18:25;;;;;;;13.52;4.15;;;16.20;99.90;;;;;;5069878;28;20204;-49
2023/05/24 10:20:55;;;;;;;20.20;4.80;;;16.20;99.90;;;;;;5069952;28;20158;-49
2023/05/24 10:23:22;;;;;;;9.73;3.90;;;;;;;;;;5070208;28;20256;-48
2023/05/24 10:25:58;;;;;;;11.10;4.28;;;16.40;99.90;;;;;;5070563;28;20255;-49
2023/05/24 10:28:25;;;;;;;16.77;5.00;;;16.60;99.90;;;;;;5069933;28;20165;-49
2023/05/24 10:31:11;;;;;;;12.15;3.95;;;16.70;99.90;;;;;;5068565;28;20182;-48
2023/05/24 10:33:39;;;;;;;13.90;4.38;;;16.50;99.90;;;;;;5070024;28;20184;-49
2023/05/24 10:36:06;;;;;;;14.40;4.30;;;16.80;99.90;;;;;;5069943;28;20256;-49
2023/05/24 10:38:32;;;;;;;16.55;4.38;;;16.90;99.90;;;;;;5070026;28;20181;-49
2023/05/24 10:40:58;;;;;;;11.23;4.55;;;17.00;99.90;;;;;;5069944;28;20174;-49
2023/05/24 10:43:25;;;;;;;10.15;3.67;;;17.30;99.90;;;;;;5069727;28;20674;-49
2023/05/24 10:45:51;;;;;;;12.98;4.22;;;17.90;99.90;;;;;;5069589;28;20566;-48
2023/05/24 10:48:23;;;;;;;13.13;3.85;;;17.90;99.90;;;;;;5070012;28;20188;-49
2023/05/24 10:50:49;;;;;;;13.63;3.70;;;17.80;99.90;;;;;;5070007;28;20190;-49
2023/05/24 10:53:18;;;;;;;11.05;4.18;;;17.60;99.90;;;;;;5069140;28;20673;-49
2023/05/24 10:56:07;;;;;;;10.57;4.47;;;18.00;99.90;;;;;;5069441;28;20610;-49
2023/05/24 10:58:34;;;;;;;11.70;3.80;;;;;;;;;;5069762;28;20185;-48
2023/05/24 11:01:00;;;;;;;10.63;3.65;;;;;;;;;;5069856;28;20185;-48
2023/05/24 11:03:32;;;;;;;11.80;4.18;;;17.60;99.90;;;;;;5069519;28;20452;-49
2023/05/24 11:05:58;;;;;;;7.35;3.75;;;;;;;;;;5069426;28;20220;-49
2023/05/24 11:08:36;;;;;;;7.95;3.78;;;17.80;99.90;;;;;;5069560;28;20222;-50
2023/05/24 11:11:09;;;;;;;11.95;4.45;;;;;;;;;;5069578;28;20658;-50
2023/05/24 11:13:39;;;;;;;10.18;4.38;;;17.50;99.90;;;;;;5069162;28;20174;-51
2023/05/24 11:16:05;;;;;;;9.68;3.70;;;17.40;99.90;;;;;;5069378;28;20215;-50
2023/05/24 11:18:32;;;;;;;8.45;3.95;;;17.50;99.90;;;;;;5068268;28;20189;-49
2023/05/24 11:21:00;;;;;;;15.30;4.38;;;18.00;99.90;;;;;;5069351;28;20162;-51
2023/05/24 11:23:26;;;;;;;11.13;4.05;;;18.10;99.90;;;;;;5069263;28;20713;-52
2023/05/24 11:25:52;;;;;;;10.90;4.40;;;;;;;;;;5069123;28;20260;-51
2023/05/24 11:28:17;;;;;;;11.27;4.50;;;18.00;99.90;;;;;;5068361;28;20200;-50
2023/05/24 11:30:45;;;;;;;11.02;4.22;;;18.10;99.90;;;;;;5069272;28;20174;-49
2023/05/24 11:33:17;;;;;;;12.30;3.95;;;18.00;99.90;;;;;;5069425;28;20174;-49
2023/05/24 11:35:43;;;;;;;11.52;3.70;;;;;;;;;;5069869;28;20177;-50
2023/05/24 11:38:13;;;;;;;9.95;3.88;;;18.10;99.90;;;;;;5067552;28;20210;-51
2023/05/24 11:40:44;;;;;;;11.35;3.65;;;18.30;99.90;;;;;;5069310;28;20172;-49
2023/05/24 11:43:13;;;;;;;14.45;4.13;;;18.20;99.90;;;;;;5069187;28;20177;-49
2023/05/24 11:45:41;;;;;;;10.40;3.78;;;18.30;99.90;;;;;;5069462;28;20177;-51
2023/05/24 11:48:07;;;;;;;12.88;4.00;;;18.70;99.90;;;;;;5069348;28;20170;-50
2023/05/24 11:50:38;;;;;;;9.50;4.30;;;19.20;99.90;;;;;;5069057;28;20223;-52
2023/05/24 11:53:04;;;;;;;11.60;3.95;;;;;;;;;;5069164;28;20187;-49
2023/05/24 11:55:31;;;;;;;14.52;5.25;;;18.50;99.90;;;;;;5068856;28;20532;-49
2023/05/24 11:58:00;;;;;;;10.15;4.20;;;18.20;99.90;;;;;;5069335;28;20222;-49
2023/05/24 12:00:26;;;;;;;10.57;3.47;;;17.70;99.90;;;;;;5068926;28;20659;-52
2023/05/24 12:02:55;;;;;;;11.43;3.90;;;17.80;99.90;;;;;;5069148;28;20162;-52
2023/05/24 12:05:22;;;;;;;14.65;4.07;;;;;;;;;;5071718;28;20214;-49
2023/05/24 12:07:48;;;;;;;13.65;4.20;;;;;;;;;;5072808;28;20690;-49
2023/05/24 12:10:16;;;;;;;14.35;3.80;;;17.40;99.90;;;;;;5072509;28;20635;-49
2023/05/24 12:12:46;;;;;;;11.38;3.83;;;17.20;99.90;;;;;;5072410;28;20181;-49
2023/05/24 12:15:13;;;;;;;15.13;4.20;;;16.80;99.90;;;;;;5072404;28;20647;-52
2023/05/24 12:17:39;;;;;;;8.10;3.30;;;16.60;99.90;;;;;;5072158;28;20577;-49
2023/05/24 12:20:05;;;;;;;10.70;3.28;;;16.40;99.90;;;;;;5072396;28;20461;-50
2023/05/24 12:22:32;;;;;;;14.02;3.63;;;;;;;;;;5072377;28;20697;-50
2023/05/24 12:24:57;;;;;;;8.68;3.55;;;16.30;99.90;;;;;;5072284;28;20158;-50
2023/05/24 12:27:33;;;;;;;11.30;3.50;;;16.50;99.90;;;;;;5072184;28;20231;-49
2023/05/24 12:30:06;;;;;;;10.30;3.97;;;16.50;99.90;;;;;;5072468;28;20172;-50
2023/05/24 12:32:31;;;;;;;10.95;3.33;;;16.50;99.90;;;;;;5072200;28;20223;-50
2023/05/24 12:34:57;;;;;;;12.35;3.63;;;16.30;99.90;;;;;;5072079;28;20570;-49
2023/05/24 12:37:22;;;;;;;11.82;3.70;;;16.60;99.90;;;;;;5071909;28;20213;-50
2023/05/24 12:39:48;;;;;;;8.77;3.05;;;16.80;99.90;;;;;;5072941;28;20206;-50
2023/05/24 12:42:13;;;;;;;13.80;4.00;;;16.60;99.90;;;;;;5071964;28;20257;-50
2023/05/24 12:44:39;;;;;;;8.98;3.40;;;16.90;99.90;;;;;;5071999;28;20177;-49
2023/05/24 12:47:06;;;;;;;9.82;3.17;;;16.60;99.90;;;;;;5071998;28;20174;-49
2023/05/24 12:49:31;;;;;;;9.30;3.47;;;16.80;99.90;;;;;;5071843;28;20219;-49
2023/05/24 12:51:58;;;;;;;11.43;3.80;;;17.00;99.90;;;;;;5071711;28;20174;-52
2023/05/24 12:54:27;;;;;;;11.73;4.22;;;17.30;99.90;;;;;;5071722;28;20209;-50
2023/05/24 12:56:53;;;;;;;11.63;4.22;;;17.30;99.90;;;;;;5071557;28;20247;-50
2023/05/24 12:59:20;;;;;;;10.35;4.03;;;;;;;;;;5072066;28;20227;-51
2023/05/24 13:01:49;;;;;;;11.73;3.58;;;17.20;99.90;;;;;;5071910;28;20201;-52